sensor_id;sensor_type;location;lat;lon;timestamp;temperature;humidity
27823;DHT22;29019;47.630;8.262;2023-03-04T00:01:33;19.80;29.80
27823;DHT22;29019;47.630;8.262;2023-03-04T00:05:33;19.80;29.80
27823;DHT22;29019;47.630;8.262;2023-03-04T00:09:34;19.70;29.80
27823;DHT22;29019;47.630;8.262;2023-03-04T00:13:35;19.70;29.80
27823;DHT22;29019;47.630;8.262;2023-03-04T00:17:35;19.70;29.80
27823;DHT22;29019;47.630;8.262;2023-03-04T00:21:35;19.70;29.90
27823;DHT22;29019;47.630;8.262;2023-03-04T00:25:36;19.70;29.90
27823;DHT22;29019;47.630;8.262;2023-03-04T00:29:36;19.60;30.30
27823;DHT22;29019;47.630;8.262;2023-03-04T00:33:37;19.60;29.90
27823;DHT22;29019;47.630;8.262;2023-03-04T00:37:37;19.60;29.90
27823;DHT22;29019;47.630;8.262;2023-03-04T00:41:38;19.60;29.90
27823;DHT22;29019;47.630;8.262;2023-03-04T00:45:38;19.50;29.90
27823;DHT22;29019;47.630;8.262;2023-03-04T00:49:39;19.50;29.90
27823;DHT22;29019;47.630;8.262;2023-03-04T00:53:39;19.50;29.90
27823;DHT22;29019;47.630;8.262;2023-03-04T00:57:40;19.50;29.90
27823;DHT22;29019;47.630;8.262;2023-03-04T01:01:40;19.50;29.90
27823;DHT22;29019;47.630;8.262;2023-03-04T01:05:41;19.50;29.90
27823;DHT22;29019;47.630;8.262;2023-03-04T01:09:41;19.50;29.90
27823;DHT22;29019;47.630;8.262;2023-03-04T01:13:42;19.40;29.90
27823;DHT22;29019;47.630;8.262;2023-03-04T01:17:42;19.40;29.90
27823;DHT22;29019;47.630;8.262;2023-03-04T01:21:43;19.40;29.90
27823;DHT22;29019;47.630;8.262;2023-03-04T01:25:43;19.40;29.90
27823;DHT22;29019;47.630;8.262;2023-03-04T01:29:44;19.40;29.90
27823;DHT22;29019;47.630;8.262;2023-03-04T01:33:44;19.40;29.90
27823;DHT22;29019;47.630;8.262;2023-03-04T01:37:44;19.40;29.90
27823;DHT22;29019;47.630;8.262;2023-03-04T01:41:45;19.30;29.90
27823;DHT22;29019;47.630;8.262;2023-03-04T01:45:46;19.30;29.90
27823;DHT22;29019;47.630;8.262;2023-03-04T01:49:47;19.30;29.90
27823;DHT22;29019;47.630;8.262;2023-03-04T01:53:50;19.20;29.90
27823;DHT22;29019;47.630;8.262;2023-03-04T01:57:52;19.30;29.90
27823;DHT22;29019;47.630;8.262;2023-03-04T02:01:54;19.30;29.90
27823;DHT22;29019;47.630;8.262;2023-03-04T02:05:54;19.20;29.90
27823;DHT22;29019;47.630;8.262;2023-03-04T02:09:55;19.20;29.90
27823;DHT22;29019;47.630;8.262;2023-03-04T02:13:55;19.20;29.90
27823;DHT22;29019;47.630;8.262;2023-03-04T02:17:56;19.20;29.90
27823;DHT22;29019;47.630;8.262;2023-03-04T02:21:56;19.20;29.90
27823;DHT22;29019;47.630;8.262;2023-03-04T02:30:10;19.10;29.90
27823;DHT22;29019;47.630;8.262;2023-03-04T02:34:21;19.10;29.90
27823;DHT22;29019;47.630;8.262;2023-03-04T02:38:22;19.10;29.90
27823;DHT22;29019;47.630;8.262;2023-03-04T02:42:23;19.10;29.90
27823;DHT22;29019;47.630;8.262;2023-03-04T02:46:23;19.00;29.90
27823;DHT22;29019;47.630;8.262;2023-03-04T02:50:24;19.00;30.00
27823;DHT22;29019;47.630;8.262;2023-03-04T02:54:25;19.00;29.90
27823;DHT22;29019;47.630;8.262;2023-03-04T02:58:25;19.00;29.90
27823;DHT22;29019;47.630;8.262;2023-03-04T03:02:26;19.00;29.90
27823;DHT22;29019;47.630;8.262;2023-03-04T03:06:26;19.00;29.90
27823;DHT22;29019;47.630;8.262;2023-03-04T03:10:27;18.90;29.90
27823;DHT22;29019;47.630;8.262;2023-03-04T03:14:27;18.90;29.90
27823;DHT22;29019;47.630;8.262;2023-03-04T03:18:28;19.00;29.90
27823;DHT22;29019;47.630;8.262;2023-03-04T03:22:28;18.90;29.90
27823;DHT22;29019;47.630;8.262;2023-03-04T03:26:28;18.90;29.90
27823;DHT22;29019;47.630;8.262;2023-03-04T03:30:29;18.90;29.90
27823;DHT22;29019;47.630;8.262;2023-03-04T03:34:29;18.90;30.00
27823;DHT22;29019;47.630;8.262;2023-03-04T03:38:30;18.80;29.90
27823;DHT22;29019;47.630;8.262;2023-03-04T03:42:30;18.80;30.30
27823;DHT22;29019;47.630;8.262;2023-03-04T03:46:31;18.80;29.90
27823;DHT22;29019;47.630;8.262;2023-03-04T03:50:31;18.80;29.90
27823;DHT22;29019;47.630;8.262;2023-03-04T03:54:32;18.80;29.90
27823;DHT22;29019;47.630;8.262;2023-03-04T03:58:33;18.80;29.90
27823;DHT22;29019;47.630;8.262;2023-03-04T04:02:33;18.80;29.90
27823;DHT22;29019;47.630;8.262;2023-03-04T04:06:34;18.80;29.90
27823;DHT22;29019;47.630;8.262;2023-03-04T04:10:34;18.70;29.90
27823;DHT22;29019;47.630;8.262;2023-03-04T04:14:35;18.80;29.90
27823;DHT22;29019;47.630;8.262;2023-03-04T04:18:35;18.70;29.90
27823;DHT22;29019;47.630;8.262;2023-03-04T04:22:35;18.70;29.90
27823;DHT22;29019;47.630;8.262;2023-03-04T04:26:36;18.70;29.90
27823;DHT22;29019;47.630;8.262;2023-03-04T04:30:36;18.70;29.80
27823;DHT22;29019;47.630;8.262;2023-03-04T04:34:37;18.70;29.80
27823;DHT22;29019;47.630;8.262;2023-03-04T04:38:38;18.70;29.80
27823;DHT22;29019;47.630;8.262;2023-03-04T04:42:38;18.70;29.80
27823;DHT22;29019;47.630;8.262;2023-03-04T04:46:39;18.70;29.80
27823;DHT22;29019;47.630;8.262;2023-03-04T04:50:39;18.60;29.80
27823;DHT22;29019;47.630;8.262;2023-03-04T04:54:39;18.70;29.80
27823;DHT22;29019;47.630;8.262;2023-03-04T04:58:40;18.70;29.80
27823;DHT22;29019;47.630;8.262;2023-03-04T05:02:41;18.70;30.20
27823;DHT22;29019;47.630;8.262;2023-03-04T05:06:41;18.70;29.80
27823;DHT22;29019;47.630;8.262;2023-03-04T05:10:42;18.60;29.90
27823;DHT22;29019;47.630;8.262;2023-03-04T05:14:42;18.70;29.90
27823;DHT22;29019;47.630;8.262;2023-03-04T05:18:42;18.80;29.80
27823;DHT22;29019;47.630;8.262;2023-03-04T05:22:43;18.90;29.70
27823;DHT22;29019;47.630;8.262;2023-03-04T05:26:43;19.00;29.70
27823;DHT22;29019;47.630;8.262;2023-03-04T05:30:44;19.10;29.60
27823;DHT22;29019;47.630;8.262;2023-03-04T05:34:45;19.30;29.60
27823;DHT22;29019;47.630;8.262;2023-03-04T05:38:45;19.30;29.50
27823;DHT22;29019;47.630;8.262;2023-03-04T05:42:45;19.40;29.50
27823;DHT22;29019;47.630;8.262;2023-03-04T05:46:46;19.50;29.50
27823;DHT22;29019;47.630;8.262;2023-03-04T05:50:46;19.50;29.40
27823;DHT22;29019;47.630;8.262;2023-03-04T05:54:47;19.60;29.40
27823;DHT22;29019;47.630;8.262;2023-03-04T05:58:47;19.60;29.40
27823;DHT22;29019;47.630;8.262;2023-03-04T06:02:48;19.70;29.40
27823;DHT22;29019;47.630;8.262;2023-03-04T06:06:48;19.70;29.40
27823;DHT22;29019;47.630;8.262;2023-03-04T06:10:50;19.70;29.40
27823;DHT22;29019;47.630;8.262;2023-03-04T06:14:51;19.80;29.40
27823;DHT22;29019;47.630;8.262;2023-03-04T06:18:51;19.80;29.80
27823;DHT22;29019;47.630;8.262;2023-03-04T06:22:52;19.80;29.40
27823;DHT22;29019;47.630;8.262;2023-03-04T06:26:52;19.90;29.30
27823;DHT22;29019;47.630;8.262;2023-03-04T06:30:53;19.90;29.30
27823;DHT22;29019;47.630;8.262;2023-03-04T06:34:54;19.90;29.30
27823;DHT22;29019;47.630;8.262;2023-03-04T06:38:54;19.90;29.30
27823;DHT22;29019;47.630;8.262;2023-03-04T06:42:55;19.90;29.30
27823;DHT22;29019;47.630;8.262;2023-03-04T06:46:55;19.90;29.20
27823;DHT22;29019;47.630;8.262;2023-03-04T06:50:55;20.00;29.30
27823;DHT22;29019;47.630;8.262;2023-03-04T06:54:56;20.00;29.30
27823;DHT22;29019;47.630;8.262;2023-03-04T06:58:56;20.00;29.20
27823;DHT22;29019;47.630;8.262;2023-03-04T07:02:57;20.00;29.20
27823;DHT22;29019;47.630;8.262;2023-03-04T07:06:57;20.00;29.20
27823;DHT22;29019;47.630;8.262;2023-03-04T07:10:58;20.10;29.30
27823;DHT22;29019;47.630;8.262;2023-03-04T07:14:58;20.10;29.20
27823;DHT22;29019;47.630;8.262;2023-03-04T07:18:59;20.10;29.20
27823;DHT22;29019;47.630;8.262;2023-03-04T07:22:59;20.20;29.20
27823;DHT22;29019;47.630;8.262;2023-03-04T07:27:00;20.10;29.10
27823;DHT22;29019;47.630;8.262;2023-03-04T07:31:07;20.10;29.10
27823;DHT22;29019;47.630;8.262;2023-03-04T07:35:08;20.20;29.10
27823;DHT22;29019;47.630;8.262;2023-03-04T07:39:09;20.20;29.10
27823;DHT22;29019;47.630;8.262;2023-03-04T07:43:10;20.20;29.10
27823;DHT22;29019;47.630;8.262;2023-03-04T07:47:11;20.20;29.10
27823;DHT22;29019;47.630;8.262;2023-03-04T07:55:13;20.20;29.10
27823;DHT22;29019;47.630;8.262;2023-03-04T07:59:13;20.20;29.10
27823;DHT22;29019;47.630;8.262;2023-03-04T08:03:14;20.20;29.10
27823;DHT22;29019;47.630;8.262;2023-03-04T08:07:14;20.20;29.10
27823;DHT22;29019;47.630;8.262;2023-03-04T08:11:16;20.20;29.10
27823;DHT22;29019;47.630;8.262;2023-03-04T08:15:17;20.20;29.10
27823;DHT22;29019;47.630;8.262;2023-03-04T08:19:17;20.20;29.10
27823;DHT22;29019;47.630;8.262;2023-03-04T08:23:18;20.10;29.10
27823;DHT22;29019;47.630;8.262;2023-03-04T08:27:18;20.20;29.10
27823;DHT22;29019;47.630;8.262;2023-03-04T08:31:19;20.10;29.10
27823;DHT22;29019;47.630;8.262;2023-03-04T08:35:20;20.10;29.20
27823;DHT22;29019;47.630;8.262;2023-03-04T08:39:20;20.10;29.20
27823;DHT22;29019;47.630;8.262;2023-03-04T08:43:21;20.20;29.20
27823;DHT22;29019;47.630;8.262;2023-03-04T08:47:22;20.20;29.20
27823;DHT22;29019;47.630;8.262;2023-03-04T08:51:22;20.20;29.20
27823;DHT22;29019;47.630;8.262;2023-03-04T08:55:23;20.30;29.20
27823;DHT22;29019;47.630;8.262;2023-03-04T08:59:23;20.40;29.20
27823;DHT22;29019;47.630;8.262;2023-03-04T09:03:24;20.40;29.20
27823;DHT22;29019;47.630;8.262;2023-03-04T09:07:24;20.50;29.20
27823;DHT22;29019;47.630;8.262;2023-03-04T09:11:25;20.50;29.20
27823;DHT22;29019;47.630;8.262;2023-03-04T09:15:25;20.50;29.20
27823;DHT22;29019;47.630;8.262;2023-03-04T09:19:25;20.50;29.20
27823;DHT22;29019;47.630;8.262;2023-03-04T09:23:27;20.50;29.10
27823;DHT22;29019;47.630;8.262;2023-03-04T09:27:27;20.50;29.10
27823;DHT22;29019;47.630;8.262;2023-03-04T09:31:28;20.50;29.10
27823;DHT22;29019;47.630;8.262;2023-03-04T09:35:28;20.50;29.10
27823;DHT22;29019;47.630;8.262;2023-03-04T09:39:29;20.50;29.10
27823;DHT22;29019;47.630;8.262;2023-03-04T09:43:29;20.50;29.10
27823;DHT22;29019;47.630;8.262;2023-03-04T09:47:32;20.50;29.20
27823;DHT22;29019;47.630;8.262;2023-03-04T09:51:54;20.50;29.20
27823;DHT22;29019;47.630;8.262;2023-03-04T09:55:56;20.40;29.20
27823;DHT22;29019;47.630;8.262;2023-03-04T10:00:03;20.40;29.20
27823;DHT22;29019;47.630;8.262;2023-03-04T10:04:07;20.40;29.20
27823;DHT22;29019;47.630;8.262;2023-03-04T10:12:40;20.50;29.30
27823;DHT22;29019;47.630;8.262;2023-03-04T10:16:50;20.50;29.20
27823;DHT22;29019;47.630;8.262;2023-03-04T10:21:03;20.50;29.20
27823;DHT22;29019;47.630;8.262;2023-03-04T10:25:25;20.60;29.20
27823;DHT22;29019;47.630;8.262;2023-03-04T10:29:26;20.70;29.10
27823;DHT22;29019;47.630;8.262;2023-03-04T10:33:28;20.80;29.10
27823;DHT22;29019;47.630;8.262;2023-03-04T10:37:42;20.80;29.10
27823;DHT22;29019;47.630;8.262;2023-03-04T10:41:44;20.80;29.10
27823;DHT22;29019;47.630;8.262;2023-03-04T10:45:45;20.80;29.10
27823;DHT22;29019;47.630;8.262;2023-03-04T10:49:49;20.90;29.10
27823;DHT22;29019;47.630;8.262;2023-03-04T10:53:51;20.90;29.00
27823;DHT22;29019;47.630;8.262;2023-03-04T10:57:55;20.90;29.10
27823;DHT22;29019;47.630;8.262;2023-03-04T11:02:01;20.90;29.10
27823;DHT22;29019;47.630;8.262;2023-03-04T11:06:11;20.80;29.10
27823;DHT22;29019;47.630;8.262;2023-03-04T11:10:25;20.80;29.10
27823;DHT22;29019;47.630;8.262;2023-03-04T11:14:36;20.80;29.10
27823;DHT22;29019;47.630;8.262;2023-03-04T11:18:42;20.90;29.10
27823;DHT22;29019;47.630;8.262;2023-03-04T11:22:43;20.90;29.10
27823;DHT22;29019;47.630;8.262;2023-03-04T11:26:45;20.90;29.10
27823;DHT22;29019;47.630;8.262;2023-03-04T11:30:47;20.80;29.00
27823;DHT22;29019;47.630;8.262;2023-03-04T11:38:50;20.80;29.10
27823;DHT22;29019;47.630;8.262;2023-03-04T11:43:01;20.80;29.10
27823;DHT22;29019;47.630;8.262;2023-03-04T11:47:09;20.80;29.10
27823;DHT22;29019;47.630;8.262;2023-03-04T11:51:18;20.80;29.10
27823;DHT22;29019;47.630;8.262;2023-03-04T12:16:06;20.90;29.10
27823;DHT22;29019;47.630;8.262;2023-03-04T12:32:45;21.10;29.00
27823;DHT22;29019;47.630;8.262;2023-03-04T12:41:10;21.20;29.20
27823;DHT22;29019;47.630;8.262;2023-03-04T12:49:25;21.20;29.00
27823;DHT22;29019;47.630;8.262;2023-03-04T12:53:48;21.10;29.00
27823;DHT22;29019;47.630;8.262;2023-03-04T12:57:50;21.10;29.00
27823;DHT22;29019;47.630;8.262;2023-03-04T13:10:18;21.00;29.10
27823;DHT22;29019;47.630;8.262;2023-03-04T13:18:29;21.00;29.10
27823;DHT22;29019;47.630;8.262;2023-03-04T13:26:39;21.00;29.20
27823;DHT22;29019;47.630;8.262;2023-03-04T13:30:41;21.00;29.20
27823;DHT22;29019;47.630;8.262;2023-03-04T13:34:47;20.90;29.20
27823;DHT22;29019;47.630;8.262;2023-03-04T13:38:56;21.00;29.20
27823;DHT22;29019;47.630;8.262;2023-03-04T13:43:16;21.00;29.20
27823;DHT22;29019;47.630;8.262;2023-03-04T13:47:17;21.10;29.60
27823;DHT22;29019;47.630;8.262;2023-03-04T13:51:32;21.10;29.10
27823;DHT22;29019;47.630;8.262;2023-03-04T13:55:35;21.10;29.10
27823;DHT22;29019;47.630;8.262;2023-03-04T13:59:45;21.20;29.10
27823;DHT22;29019;47.630;8.262;2023-03-04T14:03:47;21.30;29.10
27823;DHT22;29019;47.630;8.262;2023-03-04T14:07:48;21.30;29.00
27823;DHT22;29019;47.630;8.262;2023-03-04T14:11:51;21.30;29.00
27823;DHT22;29019;47.630;8.262;2023-03-04T14:15:56;21.30;29.00
27823;DHT22;29019;47.630;8.262;2023-03-04T14:19:57;21.30;29.00
27823;DHT22;29019;47.630;8.262;2023-03-04T14:24:05;21.30;29.00
27823;DHT22;29019;47.630;8.262;2023-03-04T14:28:10;21.30;29.00
27823;DHT22;29019;47.630;8.262;2023-03-04T14:32:11;21.30;29.00
27823;DHT22;29019;47.630;8.262;2023-03-04T14:36:16;21.30;29.00
27823;DHT22;29019;47.630;8.262;2023-03-04T14:40:19;21.30;29.00
27823;DHT22;29019;47.630;8.262;2023-03-04T14:44:24;21.20;29.00
27823;DHT22;29019;47.630;8.262;2023-03-04T14:48:31;21.20;29.10
27823;DHT22;29019;47.630;8.262;2023-03-04T14:52:36;21.20;29.10
27823;DHT22;29019;47.630;8.262;2023-03-04T14:56:42;21.20;29.10
27823;DHT22;29019;47.630;8.262;2023-03-04T15:00:42;21.10;29.10
27823;DHT22;29019;47.630;8.262;2023-03-04T15:04:43;21.10;29.10
27823;DHT22;29019;47.630;8.262;2023-03-04T15:08:44;21.10;29.20
27823;DHT22;29019;47.630;8.262;2023-03-04T15:12:49;21.00;29.20
27823;DHT22;29019;47.630;8.262;2023-03-04T15:16:53;21.00;29.20
27823;DHT22;29019;47.630;8.262;2023-03-04T15:20:59;21.00;29.20
27823;DHT22;29019;47.630;8.262;2023-03-04T15:25:00;21.00;29.20
27823;DHT22;29019;47.630;8.262;2023-03-04T15:29:02;21.10;29.20
27823;DHT22;29019;47.630;8.262;2023-03-04T15:33:04;21.10;29.20
27823;DHT22;29019;47.630;8.262;2023-03-04T15:37:05;21.20;29.20
27823;DHT22;29019;47.630;8.262;2023-03-04T15:41:07;21.20;29.10
27823;DHT22;29019;47.630;8.262;2023-03-04T15:45:30;21.30;29.10
27823;DHT22;29019;47.630;8.262;2023-03-04T15:49:30;21.30;29.10
27823;DHT22;29019;47.630;8.262;2023-03-04T15:53:37;21.40;29.10
27823;DHT22;29019;47.630;8.262;2023-03-04T15:57:38;21.40;29.00
27823;DHT22;29019;47.630;8.262;2023-03-04T16:01:39;21.40;29.00
27823;DHT22;29019;47.630;8.262;2023-03-04T16:05:39;21.30;29.00
27823;DHT22;29019;47.630;8.262;2023-03-04T16:09:40;21.30;29.00
27823;DHT22;29019;47.630;8.262;2023-03-04T16:13:40;21.30;29.00
27823;DHT22;29019;47.630;8.262;2023-03-04T16:17:41;21.30;29.00
27823;DHT22;29019;47.630;8.262;2023-03-04T16:21:43;21.30;29.00
27823;DHT22;29019;47.630;8.262;2023-03-04T16:25:44;21.20;29.00
27823;DHT22;29019;47.630;8.262;2023-03-04T16:29:46;21.20;29.00
27823;DHT22;29019;47.630;8.262;2023-03-04T16:33:46;21.10;29.00
27823;DHT22;29019;47.630;8.262;2023-03-04T16:37:47;21.10;29.10
27823;DHT22;29019;47.630;8.262;2023-03-04T16:41:47;21.10;29.10
27823;DHT22;29019;47.630;8.262;2023-03-04T16:45:47;21.10;29.10
27823;DHT22;29019;47.630;8.262;2023-03-04T16:49:48;21.00;29.10
27823;DHT22;29019;47.630;8.262;2023-03-04T16:53:52;21.00;29.10
27823;DHT22;29019;47.630;8.262;2023-03-04T16:57:54;21.00;29.10
27823;DHT22;29019;47.630;8.262;2023-03-04T17:01:55;21.00;29.10
27823;DHT22;29019;47.630;8.262;2023-03-04T17:05:55;21.00;29.20
27823;DHT22;29019;47.630;8.262;2023-03-04T17:09:56;21.10;29.20
27823;DHT22;29019;47.630;8.262;2023-03-04T17:13:56;21.10;29.20
27823;DHT22;29019;47.630;8.262;2023-03-04T17:17:56;21.10;29.20
27823;DHT22;29019;47.630;8.262;2023-03-04T17:21:57;21.20;29.10
27823;DHT22;29019;47.630;8.262;2023-03-04T17:25:58;21.20;29.10
27823;DHT22;29019;47.630;8.262;2023-03-04T17:29:59;21.30;29.10
27823;DHT22;29019;47.630;8.262;2023-03-04T17:33:59;21.30;29.00
27823;DHT22;29019;47.630;8.262;2023-03-04T17:37:59;21.30;29.40
27823;DHT22;29019;47.630;8.262;2023-03-04T17:42:00;21.30;29.00
27823;DHT22;29019;47.630;8.262;2023-03-04T17:46:01;21.30;28.90
27823;DHT22;29019;47.630;8.262;2023-03-04T17:50:03;21.30;29.00
27823;DHT22;29019;47.630;8.262;2023-03-04T17:54:06;21.20;28.90
27823;DHT22;29019;47.630;8.262;2023-03-04T17:58:07;21.20;28.90
27823;DHT22;29019;47.630;8.262;2023-03-04T18:02:10;21.20;28.90
27823;DHT22;29019;47.630;8.262;2023-03-04T18:06:12;21.10;29.00
27823;DHT22;29019;47.630;8.262;2023-03-04T18:10:13;21.00;29.00
27823;DHT22;29019;47.630;8.262;2023-03-04T18:14:13;21.00;29.00
27823;DHT22;29019;47.630;8.262;2023-03-04T18:18:15;21.00;29.00
27823;DHT22;29019;47.630;8.262;2023-03-04T18:22:15;21.00;29.00
27823;DHT22;29019;47.630;8.262;2023-03-04T18:26:16;21.00;29.00
27823;DHT22;29019;47.630;8.262;2023-03-04T18:30:17;20.90;29.00
27823;DHT22;29019;47.630;8.262;2023-03-04T18:34:20;20.90;29.10
27823;DHT22;29019;47.630;8.262;2023-03-04T18:38:20;20.90;29.10
27823;DHT22;29019;47.630;8.262;2023-03-04T18:42:20;20.90;29.10
27823;DHT22;29019;47.630;8.262;2023-03-04T18:46:25;20.80;29.10
27823;DHT22;29019;47.630;8.262;2023-03-04T18:50:27;20.90;29.10
27823;DHT22;29019;47.630;8.262;2023-03-04T18:54:27;20.80;29.10
27823;DHT22;29019;47.630;8.262;2023-03-04T18:58:29;20.80;29.10
27823;DHT22;29019;47.630;8.262;2023-03-04T19:02:31;20.90;29.10
27823;DHT22;29019;47.630;8.262;2023-03-04T19:06:33;21.00;29.20
27823;DHT22;29019;47.630;8.262;2023-03-04T19:10:33;21.00;29.00
27823;DHT22;29019;47.630;8.262;2023-03-04T19:14:34;21.00;29.00
27823;DHT22;29019;47.630;8.262;2023-03-04T19:18:34;21.10;28.90
27823;DHT22;29019;47.630;8.262;2023-03-04T19:22:35;21.10;28.90
27823;DHT22;29019;47.630;8.262;2023-03-04T19:26:35;21.20;28.90
27823;DHT22;29019;47.630;8.262;2023-03-04T19:30:36;21.10;28.90
27823;DHT22;29019;47.630;8.262;2023-03-04T19:34:37;21.10;28.90
27823;DHT22;29019;47.630;8.262;2023-03-04T19:38:37;21.10;28.90
27823;DHT22;29019;47.630;8.262;2023-03-04T19:42:37;21.10;28.80
27823;DHT22;29019;47.630;8.262;2023-03-04T19:46:38;21.10;28.80
27823;DHT22;29019;47.630;8.262;2023-03-04T19:50:38;21.10;28.80
27823;DHT22;29019;47.630;8.262;2023-03-04T19:54:39;21.00;28.80
27823;DHT22;29019;47.630;8.262;2023-03-04T19:58:39;21.00;28.90
27823;DHT22;29019;47.630;8.262;2023-03-04T20:02:40;20.90;28.90
27823;DHT22;29019;47.630;8.262;2023-03-04T20:06:45;20.90;28.90
27823;DHT22;29019;47.630;8.262;2023-03-04T20:10:46;20.90;28.90
27823;DHT22;29019;47.630;8.262;2023-03-04T20:14:46;20.90;28.90
27823;DHT22;29019;47.630;8.262;2023-03-04T20:18:47;20.90;29.00
27823;DHT22;29019;47.630;8.262;2023-03-04T20:22:47;20.80;29.00
27823;DHT22;29019;47.630;8.262;2023-03-04T20:26:48;20.80;29.00
27823;DHT22;29019;47.630;8.262;2023-03-04T20:30:49;20.80;29.00
27823;DHT22;29019;47.630;8.262;2023-03-04T20:34:49;20.80;29.00
27823;DHT22;29019;47.630;8.262;2023-03-04T20:38:53;20.80;29.10
27823;DHT22;29019;47.630;8.262;2023-03-04T20:42:54;20.80;29.10
27823;DHT22;29019;47.630;8.262;2023-03-04T20:46:54;20.90;29.00
27823;DHT22;29019;47.630;8.262;2023-03-04T20:50:55;20.90;28.90
27823;DHT22;29019;47.630;8.262;2023-03-04T20:54:55;20.90;28.90
27823;DHT22;29019;47.630;8.262;2023-03-04T20:58:56;21.00;28.90
27823;DHT22;29019;47.630;8.262;2023-03-04T21:02:57;21.00;28.90
27823;DHT22;29019;47.630;8.262;2023-03-04T21:06:57;21.10;28.80
27823;DHT22;29019;47.630;8.262;2023-03-04T21:11:00;21.10;28.80
27823;DHT22;29019;47.630;8.262;2023-03-04T21:15:00;21.10;28.80
27823;DHT22;29019;47.630;8.262;2023-03-04T21:19:01;21.10;28.80
27823;DHT22;29019;47.630;8.262;2023-03-04T21:23:01;21.00;28.70
27823;DHT22;29019;47.630;8.262;2023-03-04T21:27:02;21.10;28.80
27823;DHT22;29019;47.630;8.262;2023-03-04T21:31:03;21.00;28.70
27823;DHT22;29019;47.630;8.262;2023-03-04T21:35:05;21.00;28.70
27823;DHT22;29019;47.630;8.262;2023-03-04T21:39:05;21.00;28.70
27823;DHT22;29019;47.630;8.262;2023-03-04T21:43:06;20.90;28.70
27823;DHT22;29019;47.630;8.262;2023-03-04T21:47:06;20.90;28.70
27823;DHT22;29019;47.630;8.262;2023-03-04T21:51:07;20.90;28.80
27823;DHT22;29019;47.630;8.262;2023-03-04T21:55:08;20.90;28.80
27823;DHT22;29019;47.630;8.262;2023-03-04T21:59:09;20.80;28.80
27823;DHT22;29019;47.630;8.262;2023-03-04T22:03:10;20.80;28.80
27823;DHT22;29019;47.630;8.262;2023-03-04T22:07:11;20.70;28.80
27823;DHT22;29019;47.630;8.262;2023-03-04T22:11:11;20.70;28.90
27823;DHT22;29019;47.630;8.262;2023-03-04T22:15:12;20.60;29.00
27823;DHT22;29019;47.630;8.262;2023-03-04T22:19:12;20.60;29.00
27823;DHT22;29019;47.630;8.262;2023-03-04T22:23:13;20.50;29.00
27823;DHT22;29019;47.630;8.262;2023-03-04T22:27:13;20.50;29.10
27823;DHT22;29019;47.630;8.262;2023-03-04T22:31:15;20.50;29.10
27823;DHT22;29019;47.630;8.262;2023-03-04T22:35:16;20.40;29.10
27823;DHT22;29019;47.630;8.262;2023-03-04T22:39:17;20.40;29.10
27823;DHT22;29019;47.630;8.262;2023-03-04T22:43:18;20.40;29.10
27823;DHT22;29019;47.630;8.262;2023-03-04T22:47:18;20.30;29.10
27823;DHT22;29019;47.630;8.262;2023-03-04T22:51:19;20.30;29.00
27823;DHT22;29019;47.630;8.262;2023-03-04T22:55:20;20.30;29.10
27823;DHT22;29019;47.630;8.262;2023-03-04T22:59:21;20.20;29.10
27823;DHT22;29019;47.630;8.262;2023-03-04T23:03:21;20.20;29.10
27823;DHT22;29019;47.630;8.262;2023-03-04T23:07:22;20.20;29.10
27823;DHT22;29019;47.630;8.262;2023-03-04T23:11:24;20.10;29.10
27823;DHT22;29019;47.630;8.262;2023-03-04T23:15:25;20.10;29.20
27823;DHT22;29019;47.630;8.262;2023-03-04T23:19:26;20.10;29.10
27823;DHT22;29019;47.630;8.262;2023-03-04T23:23:26;20.10;29.20
27823;DHT22;29019;47.630;8.262;2023-03-04T23:27:27;20.00;29.10
27823;DHT22;29019;47.630;8.262;2023-03-04T23:31:28;20.00;29.10
27823;DHT22;29019;47.630;8.262;2023-03-04T23:35:28;20.00;29.10
27823;DHT22;29019;47.630;8.262;2023-03-04T23:39:28;19.90;29.10
27823;DHT22;29019;47.630;8.262;2023-03-04T23:43:29;20.00;29.20
27823;DHT22;29019;47.630;8.262;2023-03-04T23:47:31;19.90;29.20
27823;DHT22;29019;47.630;8.262;2023-03-04T23:51:31;19.90;29.60
27823;DHT22;29019;47.630;8.262;2023-03-04T23:55:32;19.90;29.20
27823;DHT22;29019;47.630;8.262;2023-03-04T23:59:33;19.90;29.20
